Time;durP1;ratioP1;P1;durP2;ratioP2;P2;SDS_P1;SDS_P2;PMS_P1;PMS_P2;Temp;Humidity;BMP_temperature;BMP_pressure;BME280_temperature;BME280_humidity;BME280_pressure;Samples;Min_cycle;Max_cycle;Signal;HPM_P1;HPM_P2
2021/09/19 00:00:20;;;;;;;2.78;1.95;;;13.30;99.90;;;;;;5058883;28;20029;-75
2021/09/19 00:02:47;;;;;;;3.83;2.22;;;13.30;99.90;;;;;;5057884;28;20125;-75
2021/09/19 00:05:13;;;;;;;4.60;2.10;;;13.30;99.90;;;;;;5055360;28;20028;-75
2021/09/19 00:07:39;;;;;;;3.42;2.10;;;13.30;99.90;;;;;;5055044;28;20071;-75
2021/09/19 00:10:10;;;;;;;3.38;1.90;;;13.30;99.90;;;;;;5056486;28;20028;-75
2021/09/19 00:12:38;;;;;;;2.35;1.73;;;13.20;99.90;;;;;;5054894;28;20024;-75
2021/09/19 00:15:06;;;;;;;4.90;2.05;;;13.20;99.90;;;;;;5054885;28;20116;-75
2021/09/19 00:17:32;;;;;;;3.72;2.08;;;13.20;99.90;;;;;;5061267;28;20053;-75
2021/09/19 00:19:57;;;;;;;4.70;1.88;;;13.20;99.90;;;;;;5061332;28;20025;-75
2021/09/19 00:22:23;;;;;;;4.40;2.25;;;13.20;99.90;;;;;;5059546;28;20028;-75
2021/09/19 00:24:49;;;;;;;5.28;2.38;;;13.10;99.90;;;;;;5060448;28;20219;-74
2021/09/19 00:27:15;;;;;;;5.57;2.65;;;13.10;99.90;;;;;;5059341;28;20142;-75
2021/09/19 00:29:40;;;;;;;4.40;2.35;;;13.10;99.90;;;;;;5060549;28;20024;-73
2021/09/19 00:32:06;;;;;;;4.05;2.25;;;13.10;99.90;;;;;;5059384;28;20386;-74
2021/09/19 00:34:32;;;;;;;6.07;3.00;;;13.00;99.90;;;;;;5060557;28;20055;-74
2021/09/19 00:36:58;;;;;;;4.15;2.70;;;13.10;99.90;;;;;;5059136;28;20044;-74
2021/09/19 00:39:24;;;;;;;5.28;3.10;;;13.00;99.90;;;;;;5060421;28;20013;-74
2021/09/19 00:41:49;;;;;;;4.80;2.63;;;13.00;99.90;;;;;;5058224;28;20039;-74
2021/09/19 00:44:15;;;;;;;3.67;2.35;;;13.00;99.90;;;;;;5059065;28;20021;-74
2021/09/19 00:46:41;;;;;;;5.45;3.30;;;13.00;99.90;;;;;;5060441;28;20029;-75
2021/09/19 00:49:06;;;;;;;5.43;3.13;;;13.00;99.90;;;;;;5059903;28;20032;-74
2021/09/19 00:51:33;;;;;;;6.38;2.83;;;13.00;99.90;;;;;;5059284;28;20044;-75
2021/09/19 00:54:00;;;;;;;4.90;2.78;;;13.00;99.90;;;;;;5059121;28;20486;-75
2021/09/19 00:56:28;;;;;;;4.68;2.65;;;13.00;99.90;;;;;;5058916;28;20025;-75
2021/09/19 00:58:55;;;;;;;7.13;3.33;;;13.00;99.90;;;;;;5058984;28;20386;-75
2021/09/19 01:01:22;;;;;;;5.38;3.17;;;13.00;99.90;;;;;;5058444;28;20115;-75
2021/09/19 01:03:47;;;;;;;5.82;3.60;;;13.00;99.90;;;;;;5058639;28;20039;-75
2021/09/19 01:06:15;;;;;;;5.93;3.60;;;13.00;99.90;;;;;;5059901;28;20104;-75
2021/09/19 01:08:42;;;;;;;5.05;3.53;;;13.00;99.90;;;;;;5059914;28;20548;-75
2021/09/19 01:11:13;;;;;;;5.90;3.83;;;13.00;99.90;;;;;;5058575;28;20025;-75
2021/09/19 01:13:44;;;;;;;6.22;3.15;;;13.00;99.90;;;;;;5058535;28;20020;-75
2021/09/19 01:16:11;;;;;;;7.70;3.40;;;13.00;99.90;;;;;;5058306;28;20106;-75
2021/09/19 01:18:39;;;;;;;7.53;4.28;;;13.00;99.90;;;;;;5058262;28;20021;-75
2021/09/19 01:21:05;;;;;;;5.88;3.80;;;13.00;99.90;;;;;;5055120;28;20029;-74
2021/09/19 01:23:31;;;;;;;5.57;3.53;;;13.00;99.90;;;;;;5055086;28;20033;-75
2021/09/19 01:25:57;;;;;;;6.05;3.85;;;13.00;99.90;;;;;;5055336;28;20039;-76
2021/09/19 01:28:24;;;;;;;6.30;3.90;;;13.00;99.90;;;;;;5068233;22;20045;-75
2021/09/19 01:30:50;;;;;;;9.77;4.63;;;13.00;99.90;;;;;;5070197;28;20021;-75
2021/09/19 01:33:15;;;;;;;6.22;3.80;;;13.00;99.90;;;;;;5054890;28;20025;-75
2021/09/19 01:35:43;;;;;;;7.97;4.25;;;13.00;99.90;;;;;;5055046;28;20048;-75
2021/09/19 01:38:09;;;;;;;7.28;4.82;;;13.00;99.90;;;;;;5053671;28;20013;-75
2021/09/19 01:40:35;;;;;;;7.78;3.75;;;13.00;99.90;;;;;;5053488;28;20435;-74
2021/09/19 01:43:02;;;;;;;8.93;4.25;;;13.00;99.90;;;;;;5055001;28;20079;-75
2021/09/19 01:45:28;;;;;;;7.45;4.68;;;13.00;99.90;;;;;;5053412;28;20028;-75
2021/09/19 01:47:55;;;;;;;8.25;3.78;;;12.90;99.90;;;;;;5054583;28;20478;-75
2021/09/19 01:50:23;;;;;;;6.07;4.25;;;12.90;99.90;;;;;;5053904;28;20484;-74
2021/09/19 01:52:49;;;;;;;6.22;4.72;;;12.90;99.90;;;;;;5054373;28;20187;-75
2021/09/19 01:55:15;;;;;;;6.43;4.32;;;12.90;99.90;;;;;;5054087;28;20028;-75
2021/09/19 01:57:41;;;;;;;6.30;3.60;;;12.80;99.90;;;;;;5066331;22;20123;-75
2021/09/19 02:00:08;;;;;;;7.50;4.25;;;12.80;99.90;;;;;;5053023;28;20033;-74
2021/09/19 02:02:35;;;;;;;8.48;4.55;;;12.80;99.90;;;;;;5054519;28;20110;-74
2021/09/19 02:05:03;;;;;;;6.40;4.20;;;12.80;99.90;;;;;;5054347;28;20425;-74
2021/09/19 02:07:29;;;;;;;6.43;3.92;;;12.80;99.90;;;;;;5054461;28;20021;-75
2021/09/19 02:09:55;;;;;;;5.78;4.32;;;12.80;99.90;;;;;;5052662;28;20036;-74
2021/09/19 02:12:20;;;;;;;6.90;3.88;;;12.80;99.90;;;;;;5035925;28;20107;-75
2021/09/19 02:14:46;;;;;;;8.88;5.22;;;12.80;99.90;;;;;;5053731;28;20371;-74
2021/09/19 02:17:13;;;;;;;7.88;4.30;;;12.70;99.90;;;;;;5053869;28;20390;-74
2021/09/19 02:19:39;;;;;;;9.80;4.95;;;12.70;99.90;;;;;;5052516;28;20017;-74
2021/09/19 02:22:10;;;;;;;6.93;4.43;;;12.70;99.90;;;;;;5053408;28;20025;-75
2021/09/19 02:24:36;;;;;;;7.82;4.30;;;12.70;99.90;;;;;;5053945;28;20433;-74
2021/09/19 02:27:02;;;;;;;8.80;4.63;;;12.70;99.90;;;;;;5053739;28;20544;-74
2021/09/19 02:29:27;;;;;;;7.80;4.32;;;12.70;99.90;;;;;;5052577;28;20025;-75
2021/09/19 02:31:55;;;;;;;11.13;4.65;;;12.70;99.90;;;;;;5053920;28;20387;-74
2021/09/19 02:34:20;;;;;;;9.50;4.90;;;12.70;99.90;;;;;;5067217;23;20471;-74
2021/09/19 02:36:46;;;;;;;7.00;4.68;;;12.70;99.90;;;;;;5053773;28;20048;-74
2021/09/19 02:39:11;;;;;;;10.25;5.38;;;12.70;99.90;;;;;;5053815;28;20048;-74
2021/09/19 02:41:38;;;;;;;10.82;5.25;;;12.70;99.90;;;;;;5053612;28;20033;-74
2021/09/19 02:44:04;;;;;;;8.55;4.85;;;12.70;99.90;;;;;;5053726;28;20112;-74
2021/09/19 02:46:30;;;;;;;9.27;5.07;;;12.70;99.90;;;;;;5053633;28;20457;-74
2021/09/19 02:48:56;;;;;;;12.50;5.72;;;12.70;99.90;;;;;;5053459;28;20070;-74
2021/09/19 02:51:21;;;;;;;8.00;4.78;;;12.70;99.90;;;;;;5053372;28;20063;-75
2021/09/19 02:53:47;;;;;;;9.50;5.22;;;12.70;99.90;;;;;;5053516;28;20052;-75
2021/09/19 02:56:13;;;;;;;9.27;5.75;;;12.80;99.90;;;;;;5052184;28;20021;-74
2021/09/19 02:58:38;;;;;;;9.80;5.38;;;12.70;99.90;;;;;;5052085;28;20053;-74
2021/09/19 03:01:04;;;;;;;9.02;4.93;;;12.70;99.90;;;;;;5053155;28;20033;-74
2021/09/19 03:03:31;;;;;;;8.77;5.70;;;12.70;99.90;;;;;;5052127;28;20024;-74
2021/09/19 03:05:56;;;;;;;9.27;5.03;;;12.70;99.90;;;;;;5053503;28;20017;-74
2021/09/19 03:08:22;;;;;;;8.80;5.55;;;12.70;99.90;;;;;;5052001;28;20031;-74
2021/09/19 03:10:47;;;;;;;9.88;5.65;;;12.70;99.90;;;;;;5053397;28;20032;-74
2021/09/19 03:13:14;;;;;;;8.52;5.03;;;12.60;99.90;;;;;;5052896;28;20029;-74
2021/09/19 03:15:40;;;;;;;9.23;5.43;;;12.60;99.90;;;;;;5053450;28;20036;-74
2021/09/19 03:18:06;;;;;;;9.70;5.63;;;12.60;99.90;;;;;;5053011;28;20108;-74
2021/09/19 03:20:32;;;;;;;8.23;4.70;;;12.60;99.90;;;;;;5051941;28;20013;-74
2021/09/19 03:22:58;;;;;;;10.35;5.05;;;12.60;99.90;;;;;;5053648;28;20032;-74
2021/09/19 03:25:24;;;;;;;9.65;5.47;;;12.60;99.90;;;;;;5053333;28;20067;-74
2021/09/19 03:27:50;;;;;;;8.43;5.47;;;12.60;99.90;;;;;;5067544;23;20045;-74
2021/09/19 03:30:16;;;;;;;9.70;5.35;;;12.60;99.90;;;;;;5052790;28;20044;-74
2021/09/19 03:32:43;;;;;;;8.43;5.13;;;12.60;99.90;;;;;;5052851;28;20025;-74
2021/09/19 03:35:10;;;;;;;11.80;6.07;;;12.60;99.90;;;;;;5053258;28;20017;-74
2021/09/19 03:37:36;;;;;;;9.60;5.80;;;12.60;99.90;;;;;;5055915;28;20029;-75
2021/09/19 03:40:02;;;;;;;8.95;5.10;;;12.50;99.90;;;;;;5055861;28;20104;-74
2021/09/19 03:42:27;;;;;;;9.35;5.05;;;12.50;99.90;;;;;;5056411;28;20430;-75
2021/09/19 03:44:53;;;;;;;7.50;5.22;;;12.50;99.90;;;;;;5057063;28;20064;-75
2021/09/19 03:47:19;;;;;;;9.57;5.88;;;12.50;99.90;;;;;;5057165;28;20109;-75
2021/09/19 03:49:45;;;;;;;11.43;5.07;;;12.50;99.90;;;;;;5057843;28;20398;-74
2021/09/19 03:52:11;;;;;;;8.90;5.85;;;12.50;99.90;;;;;;5059383;28;20028;-75
2021/09/19 03:54:37;;;;;;;10.05;5.57;;;12.50;99.90;;;;;;5059617;28;20024;-75
2021/09/19 03:57:02;;;;;;;10.52;6.20;;;12.50;99.90;;;;;;5060934;28;20083;-75
2021/09/19 03:59:28;;;;;;;10.82;5.47;;;12.50;99.90;;;;;;5061256;28;20053;-75
2021/09/19 04:01:53;;;;;;;12.13;6.25;;;12.50;99.90;;;;;;5060601;28;20021;-74
2021/09/19 04:04:19;;;;;;;12.02;6.15;;;12.50;99.90;;;;;;5060682;28;20025;-74
2021/09/19 04:06:45;;;;;;;10.95;5.90;;;13.00;99.90;;;;;;5060151;28;20036;-74
2021/09/19 04:09:11;;;;;;;13.10;6.20;;;12.40;99.90;;;;;;5060339;28;20025;-75
2021/09/19 04:11:36;;;;;;;11.93;6.10;;;12.50;99.90;;;;;;5058632;28;20021;-75
2021/09/19 04:14:02;;;;;;;10.20;6.05;;;12.40;99.90;;;;;;5056362;28;20108;-75
2021/09/19 04:16:28;;;;;;;12.02;5.97;;;12.40;99.90;;;;;;5056478;28;20427;-75
2021/09/19 04:18:53;;;;;;;12.85;6.28;;;12.40;99.90;;;;;;5056936;28;20028;-74
2021/09/19 04:21:20;;;;;;;9.95;5.68;;;12.40;99.90;;;;;;5056342;28;20071;-74
2021/09/19 04:23:46;;;;;;;11.25;6.22;;;12.40;99.90;;;;;;5056141;28;20029;-75
2021/09/19 04:26:11;;;;;;;10.05;6.22;;;12.30;99.90;;;;;;5056257;28;20025;-75
2021/09/19 04:28:37;;;;;;;12.13;6.28;;;12.30;99.90;;;;;;5055794;28;20032;-74
2021/09/19 04:31:02;;;;;;;9.80;6.25;;;12.30;99.90;;;;;;5056165;28;20028;-75
2021/09/19 04:33:28;;;;;;;11.73;5.85;;;12.30;99.90;;;;;;5054532;28;20479;-74
2021/09/19 04:35:53;;;;;;;9.93;5.32;;;12.30;99.90;;;;;;5054818;28;20024;-74
2021/09/19 04:38:19;;;;;;;9.98;5.57;;;12.30;99.90;;;;;;5056276;28;20025;-75
2021/09/19 04:40:44;;;;;;;11.82;6.55;;;12.40;99.90;;;;;;5056128;28;20021;-75
2021/09/19 04:43:12;;;;;;;10.68;6.38;;;12.40;99.90;;;;;;5053392;28;20024;-75
2021/09/19 04:45:39;;;;;;;10.48;6.00;;;12.40;99.90;;;;;;5054117;28;20044;-74
2021/09/19 04:48:05;;;;;;;9.32;5.72;;;12.40;99.90;;;;;;5055932;28;20541;-74
2021/09/19 04:50:30;;;;;;;11.18;6.35;;;12.40;99.90;;;;;;5055691;28;20056;-74
2021/09/19 04:52:56;;;;;;;13.73;6.78;;;12.40;99.90;;;;;;5055317;28;20114;-74
2021/09/19 04:55:22;;;;;;;11.75;6.10;;;12.40;99.90;;;;;;5055760;28;20033;-74
2021/09/19 04:57:48;;;;;;;11.65;6.53;;;12.40;99.90;;;;;;5055725;28;20021;-74
2021/09/19 05:00:14;;;;;;;10.57;5.63;;;12.40;99.90;;;;;;5055474;28;20510;-75
2021/09/19 05:02:39;;;;;;;14.30;6.05;;;12.40;99.90;;;;;;5054020;28;20036;-74
2021/09/19 05:05:06;;;;;;;11.82;6.53;;;12.40;99.90;;;;;;5054221;28;20021;-75
2021/09/19 05:07:31;;;;;;;14.57;4.90;;;12.40;99.90;;;;;;5053971;28;20033;-75
2021/09/19 05:12:26;;;;;;;11.25;6.60;;;12.40;99.90;;;;;;5073725;28;20056;-74
2021/09/19 05:14:55;;;;;;;11.40;6.75;;;12.40;99.90;;;;;;5088483;22;20105;-74
2021/09/19 05:17:21;;;;;;;12.07;6.30;;;12.40;99.90;;;;;;5075793;28;20044;-74
2021/09/19 05:19:47;;;;;;;14.25;6.70;;;12.40;99.90;;;;;;5057486;28;20458;-75
2021/09/19 05:22:13;;;;;;;11.70;6.70;;;12.40;99.90;;;;;;5057270;28;20390;-75
2021/09/19 05:24:39;;;;;;;10.63;6.40;;;12.40;99.90;;;;;;5073734;28;20020;-74
2021/09/19 05:27:05;;;;;;;12.57;6.15;;;12.40;99.90;;;;;;5075012;28;20040;-74
2021/09/19 05:29:30;;;;;;;10.38;5.93;;;12.40;99.90;;;;;;5075201;28;20024;-74
2021/09/19 05:31:56;;;;;;;12.02;6.20;;;12.40;99.90;;;;;;5075708;28;20107;-75
2021/09/19 05:34:21;;;;;;;12.95;6.63;;;12.40;99.90;;;;;;5074940;28;20381;-74
2021/09/19 05:36:47;;;;;;;11.80;6.10;;;12.40;99.90;;;;;;5074857;28;20025;-74
2021/09/19 05:39:12;;;;;;;11.05;6.07;;;12.40;99.90;;;;;;5073495;28;20108;-74
2021/09/19 05:41:38;;;;;;;9.90;6.32;;;12.50;99.90;;;;;;5074613;28;20020;-74
2021/09/19 05:44:04;;;;;;;11.98;6.38;;;12.50;99.90;;;;;;5073488;28;20119;-75
2021/09/19 05:46:29;;;;;;;10.52;5.90;;;12.50;99.90;;;;;;5073044;28;20382;-75
2021/09/19 05:48:55;;;;;;;11.52;6.20;;;12.50;99.90;;;;;;5074365;28;20036;-74
2021/09/19 05:51:23;;;;;;;11.60;6.43;;;12.50;99.90;;;;;;5072991;28;20020;-74
2021/09/19 05:53:49;;;;;;;12.32;6.13;;;12.60;99.90;;;;;;5074102;28;20059;-74
2021/09/19 05:56:15;;;;;;;9.13;5.45;;;13.20;99.90;;;;;;5074454;28;20521;-74
2021/09/19 05:58:41;;;;;;;10.07;5.65;;;12.60;99.90;;;;;;5073691;28;20095;-74
2021/09/19 06:01:06;;;;;;;10.93;6.20;;;12.60;99.90;;;;;;5073269;28;20067;-74
2021/09/19 06:03:32;;;;;;;12.88;6.13;;;12.70;99.90;;;;;;5074469;28;20024;-74
2021/09/19 06:05:57;;;;;;;12.00;6.13;;;12.80;99.90;;;;;;5075892;28;20047;-75
2021/09/19 06:08:24;;;;;;;14.43;6.07;;;12.90;99.90;;;;;;5078740;28;20441;-75
2021/09/19 06:10:49;;;;;;;11.60;6.32;;;13.00;99.90;;;;;;5078166;28;20031;-75
2021/09/19 06:13:15;;;;;;;8.00;5.20;;;13.00;99.90;;;;;;5074667;28;20029;-75
2021/09/19 06:15:41;;;;;;;9.55;5.57;;;13.10;99.90;;;;;;5074068;28;20034;-75
2021/09/19 06:18:07;;;;;;;16.05;6.50;;;13.10;99.90;;;;;;5074042;28;20017;-76
2021/09/19 06:20:33;;;;;;;9.57;4.93;;;13.20;99.90;;;;;;5061749;28;20474;-76
2021/09/19 06:22:58;;;;;;;9.65;5.07;;;13.10;99.90;;;;;;5073688;28;20104;-75
2021/09/19 06:25:24;;;;;;;10.55;5.07;;;13.20;99.90;;;;;;5073963;28;20111;-74
2021/09/19 06:27:50;;;;;;;12.05;5.20;;;13.30;99.90;;;;;;5063075;28;20017;-74
2021/09/19 06:30:15;;;;;;;10.73;5.25;;;13.40;99.90;;;;;;5072555;28;20115;-75
2021/09/19 06:32:41;;;;;;;8.20;4.78;;;13.40;99.90;;;;;;5073637;28;20078;-75
2021/09/19 06:35:10;;;;;;;8.30;4.38;;;13.50;99.90;;;;;;5072472;28;20496;-74
2021/09/19 06:37:36;;;;;;;8.05;4.78;;;13.60;99.90;;;;;;5072085;28;20561;-75
2021/09/19 06:40:02;;;;;;;8.25;4.38;;;13.70;99.90;;;;;;5074063;28;20052;-75
2021/09/19 06:42:28;;;;;;;7.55;4.28;;;13.80;99.90;;;;;;5072781;28;20020;-74
2021/09/19 06:44:53;;;;;;;10.48;4.85;;;14.00;99.90;;;;;;5073697;28;20033;-75
2021/09/19 06:47:19;;;;;;;6.28;3.80;;;14.00;99.90;;;;;;5073238;28;20028;-75
2021/09/19 06:49:48;;;;;;;7.47;4.43;;;14.00;99.90;;;;;;5073554;28;20032;-75
2021/09/19 06:52:14;;;;;;;9.05;4.53;;;14.00;99.90;;;;;;5068582;22;20076;-75
2021/09/19 06:54:41;;;;;;;6.60;4.25;;;14.00;99.90;;;;;;5035486;28;20498;-75
2021/09/19 06:57:07;;;;;;;7.35;3.90;;;14.40;99.90;;;;;;5035466;28;20386;-75
2021/09/19 07:02:00;;;;;;;7.22;4.10;;;14.20;99.90;;;;;;5074150;28;20052;-74
2021/09/19 07:04:26;;;;;;;5.38;3.65;;;14.30;99.90;;;;;;5073809;28;20367;-75
2021/09/19 07:06:52;;;;;;;5.65;3.10;;;14.50;99.90;;;;;;5069841;28;20025;-74
2021/09/19 07:09:18;;;;;;;6.50;3.65;;;14.60;99.90;;;;;;5056055;28;20029;-74
2021/09/19 07:11:44;;;;;;;4.88;3.25;;;14.80;99.90;;;;;;5055634;28;20032;-74
2021/09/19 07:14:10;;;;;;;5.30;3.00;;;14.90;99.90;;;;;;5056966;28;20021;-75
2021/09/19 07:16:35;;;;;;;5.03;3.38;;;14.80;99.90;;;;;;5061409;28;20107;-75
2021/09/19 07:19:01;;;;;;;5.65;3.05;;;14.90;99.90;;;;;;5077594;28;20024;-75
2021/09/19 07:21:26;;;;;;;4.63;2.90;;;14.90;99.90;;;;;;5075760;28;20479;-75
2021/09/19 07:23:52;;;;;;;7.05;3.35;;;14.90;99.90;;;;;;5073952;28;20060;-74
2021/09/19 07:26:18;;;;;;;8.63;3.10;;;14.90;99.90;;;;;;5072091;28;20028;-75
2021/09/19 07:28:45;;;;;;;6.30;3.10;;;15.00;99.90;;;;;;5053465;28;20072;-75
2021/09/19 07:31:11;;;;;;;6.15;3.33;;;15.10;99.90;;;;;;5053580;28;20025;-75
2021/09/19 07:33:36;;;;;;;5.60;3.05;;;15.10;99.90;;;;;;5053270;28;20363;-74
2021/09/19 07:36:06;;;;;;;4.57;2.83;;;15.20;99.90;;;;;;5051824;28;20493;-75
2021/09/19 07:38:33;;;;;;;5.25;2.95;;;15.30;99.90;;;;;;5072249;28;20021;-74
2021/09/19 07:40:59;;;;;;;3.70;2.33;;;15.40;99.90;;;;;;5102877;22;20044;-75
2021/09/19 07:43:26;;;;;;;4.82;2.97;;;15.50;99.90;;;;;;5083395;28;20028;-74
2021/09/19 07:45:52;;;;;;;5.07;2.65;;;15.60;99.90;;;;;;5073790;28;20362;-75
2021/09/19 07:48:21;;;;;;;4.75;2.92;;;15.60;99.90;;;;;;5072456;28;20024;-75
2021/09/19 07:50:49;;;;;;;4.88;2.67;;;15.70;99.90;;;;;;5073441;28;20016;-75
2021/09/19 07:53:15;;;;;;;5.63;2.63;;;15.80;99.90;;;;;;5077224;28;20029;-75
2021/09/19 07:55:41;;;;;;;4.65;2.38;;;15.90;99.90;;;;;;5056573;28;20017;-75
2021/09/19 07:58:06;;;;;;;5.35;2.33;;;15.90;99.90;;;;;;5072573;28;20478;-74
2021/09/19 08:00:32;;;;;;;3.75;2.28;;;16.00;99.90;;;;;;5054844;28;20051;-74
2021/09/19 08:02:58;;;;;;;6.28;2.70;;;16.10;99.90;;;;;;5072650;28;20363;-75
2021/09/19 08:05:24;;;;;;;3.47;2.30;;;16.10;99.90;;;;;;5072793;28;20440;-75
2021/09/19 08:07:50;;;;;;;3.85;2.42;;;16.10;99.90;;;;;;5053848;22;20145;-75
2021/09/19 08:10:17;;;;;;;3.22;2.17;;;16.20;99.90;;;;;;5032160;28;20034;-75
2021/09/19 08:12:47;;;;;;;2.88;1.80;;;16.10;99.90;;;;;;5031435;28;20022;-75
2021/09/19 08:15:17;;;;;;;4.53;2.53;;;16.20;99.90;;;;;;5032076;28;20387;-75
2021/09/19 08:17:44;;;;;;;3.33;2.17;;;16.30;99.90;;;;;;5032624;28;20063;-75
2021/09/19 08:20:11;;;;;;;2.97;1.60;;;16.50;99.90;;;;;;5032818;28;20045;-75
2021/09/19 08:22:37;;;;;;;3.50;2.05;;;16.60;99.90;;;;;;4998721;28;20129;-75
2021/09/19 08:25:04;;;;;;;2.72;1.83;;;16.80;99.90;;;;;;4998991;28;20488;-76
2021/09/19 08:27:30;;;;;;;1.73;1.30;;;16.90;99.90;;;;;;5016541;28;20398;-75
2021/09/19 08:29:56;;;;;;;2.70;1.80;;;17.00;99.90;;;;;;5034277;23;20014;-75
2021/09/19 08:32:23;;;;;;;3.03;1.50;;;17.30;99.90;;;;;;5096417;28;20024;-75
2021/09/19 08:34:49;;;;;;;4.05;1.50;;;17.20;99.90;;;;;;5096054;28;20081;-75
2021/09/19 08:37:15;;;;;;;2.63;1.50;;;17.30;99.90;;;;;;5078101;28;20020;-75
2021/09/19 08:39:41;;;;;;;3.10;1.77;;;17.80;99.90;;;;;;5096024;28;20020;-75
2021/09/19 08:42:07;;;;;;;2.83;1.38;;;17.40;99.90;;;;;;5096302;28;20385;-75
2021/09/19 08:44:33;;;;;;;2.75;1.10;;;17.50;99.90;;;;;;5096393;28;20020;-75
2021/09/19 08:47:00;;;;;;;2.75;1.05;;;17.60;99.90;;;;;;5072089;22;20048;-76
2021/09/19 08:49:26;;;;;;;3.75;0.90;;;17.70;99.90;;;;;;5056303;28;20084;-75
2021/09/19 08:51:51;;;;;;;3.15;1.23;;;17.80;99.90;;;;;;5056025;28;20028;-75
2021/09/19 08:54:18;;;;;;;4.72;1.70;;;17.90;99.90;;;;;;5055500;28;20479;-75
2021/09/19 08:56:46;;;;;;;1.08;0.50;;;18.00;99.90;;;;;;5054102;28;20580;-75
2021/09/19 08:59:12;;;;;;;1.52;0.60;;;18.10;99.90;;;;;;5037585;28;20027;-75
2021/09/19 09:02:03;;;;;;;0.68;0.40;;;18.30;99.90;;;;;;5055293;28;20029;-75
2021/09/19 09:04:29;;;;;;;1.45;0.57;;;18.30;99.90;;;;;;5054172;28;20033;-76
2021/09/19 09:06:55;;;;;;;0.98;0.43;;;18.40;99.90;;;;;;5055358;28;20029;-75
2021/09/19 09:09:21;;;;;;;1.42;0.93;;;18.50;99.90;;;;;;5055330;28;20036;-74
2021/09/19 09:12:06;;;;;;;0.88;0.73;;;18.50;99.90;;;;;;5055272;28;20478;-74
2021/09/19 09:14:59;;;;;;;0.73;0.60;;;18.60;99.90;;;;;;5055322;28;20428;-74
2021/09/19 09:17:27;;;;;;;0.80;0.47;;;18.70;99.90;;;;;;5052962;28;20028;-74
2021/09/19 09:19:55;;;;;;;1.33;0.50;;;18.70;99.90;;;;;;5055832;28;20451;-75
2021/09/19 09:22:24;;;;;;;1.38;0.30;;;18.80;99.90;;;;;;5055319;28;20052;-74
2021/09/19 09:25:08;;;;;;;;;;;18.90;99.90;;;;;;5055703;28;20059;-75
2021/09/19 09:27:43;;;;;;;1.45;0.35;;;19.00;99.90;;;;;;5054702;28;19915;-73
2021/09/19 09:30:23;;;;;;;1.83;0.35;;;19.10;99.90;;;;;;5054759;28;20037;-74
2021/09/19 09:33:02;;;;;;;2.30;0.32;;;19.20;99.90;;;;;;5069413;23;20039;-74
2021/09/19 09:35:40;;;;;;;3.80;0.40;;;19.30;99.90;;;;;;5061079;22;20044;-74
2021/09/19 09:38:18;;;;;;;0.40;0.25;;;19.30;99.90;;;;;;5075129;28;20146;-78
2021/09/19 09:40:45;;;;;;;0.63;0.30;;;19.50;99.90;;;;;;5075079;28;20359;-75
2021/09/19 09:43:13;;;;;;;1.60;0.50;;;19.60;99.90;;;;;;5067293;28;20100;-74
2021/09/19 09:45:41;;;;;;;0.57;0.10;;;19.70;99.90;;;;;;5055186;28;20025;-75
2021/09/19 09:48:31;;;;;;;1.25;0.40;;;19.80;99.90;;;;;;5054492;28;20390;-76
2021/09/19 09:51:00;;;;;;;0.95;0.20;;;19.90;99.90;;;;;;5036552;28;20017;-75
2021/09/19 09:53:25;;;;;;;0.50;0.13;;;20.10;99.90;;;;;;5055015;28;20020;-75
2021/09/19 09:55:53;;;;;;;7.43;1.25;;;20.20;99.90;;;;;;5036762;28;20017;-77
2021/09/19 09:58:20;;;;;;;3.60;1.13;;;20.30;99.90;;;;;;5036589;28;20064;-77
2021/09/19 10:00:47;;;;;;;5.72;0.68;;;20.40;99.90;;;;;;5055833;28;20013;-78
2021/09/19 10:03:14;;;;;;;2.25;0.45;;;20.50;99.90;;;;;;5037036;28;20028;-78
2021/09/19 10:05:41;;;;;;;2.90;0.20;;;20.60;99.90;;;;;;5037395;28;20032;-78
2021/09/19 10:08:07;;;;;;;0.25;0.08;;;20.60;99.90;;;;;;5036723;28;20033;-77
2021/09/19 10:10:39;;;;;;;0.63;0.10;;;20.60;99.90;;;;;;5036497;28;20126;-74
2021/09/19 10:13:05;;;;;;;1.38;0.20;;;20.80;99.90;;;;;;5035946;28;20110;-76
2021/09/19 10:15:32;;;;;;;0.55;0.00;;;20.80;99.90;;;;;;5036179;28;20497;-75
2021/09/19 10:17:58;;;;;;;0.30;0.00;;;20.90;99.90;;;;;;5053814;28;20025;-75
2021/09/19 10:20:39;;;;;;;0.10;0.00;;;21.00;99.90;;;;;;5035814;28;20560;-74
2021/09/19 10:23:23;;;;;;;0.65;0.15;;;21.30;99.90;;;;;;5053729;28;20027;-76
2021/09/19 10:25:49;;;;;;;3.20;0.10;;;21.40;99.90;;;;;;5055305;28;20021;-78
2021/09/19 10:28:37;;;;;;;2.05;0.03;;;21.60;99.90;;;;;;5055148;28;20183;-75
2021/09/19 10:31:09;;;;;;;0.10;0.00;;;21.60;99.90;;;;;;5029978;28;20029;-76
2021/09/19 10:33:41;;;;;;;1.48;0.00;;;21.80;99.90;;;;;;5035582;28;20029;-74
2021/09/19 10:36:26;;;;;;;2.40;0.13;;;22.00;99.90;;;;;;5053537;28;20036;-74
2021/09/19 10:38:52;;;;;;;0.20;0.10;;;22.20;99.90;;;;;;5035924;28;20128;-77
2021/09/19 10:41:23;;;;;;;0.45;0.00;;;22.40;99.90;;;;;;5054247;28;20021;-78
2021/09/19 10:43:53;;;;;;;0.30;0.00;;;22.50;99.90;;;;;;5035668;28;20053;-74
2021/09/19 10:46:34;;;;;;;0.80;0.10;;;22.60;99.90;;;;;;5054325;28;20044;-76
2021/09/19 10:49:14;;;;;;;0.20;0.00;;;22.60;99.00;;;;;;5054404;28;20128;-77
2021/09/19 10:52:01;;;;;;;0.20;0.10;;;22.60;96.70;;;;;;5053418;28;20100;-75
2021/09/19 10:54:42;;;;;;;0.10;0.00;;;22.50;98.10;;;;;;5035509;28;20226;-76
2021/09/19 10:57:21;;;;;;;0.32;0.00;;;22.60;98.00;;;;;;5053825;28;20025;-75
2021/09/19 11:00:12;;;;;;;0.35;0.00;;;22.70;97.20;;;;;;5053767;28;20025;-75
2021/09/19 11:02:39;;;;;;;0.05;0.00;;;22.60;95.20;;;;;;5036150;28;20504;-74
2021/09/19 11:05:24;;;;;;;0.50;0.00;;;22.40;96.90;;;;;;5035614;28;20063;-75
2021/09/19 11:08:08;;;;;;;4.55;1.48;;;22.20;97.30;;;;;;5035343;28;20032;-77
2021/09/19 11:10:56;;;;;;;1.52;0.13;;;22.20;97.90;;;;;;5053761;28;20474;-77
2021/09/19 11:16:04;;;;;;;2.33;0.00;;;22.30;98.20;;;;;;5031824;28;20099;-75
2021/09/19 11:18:37;;;;;;;0.33;0.00;;;22.60;96.90;;;;;;5049323;28;20092;-74
2021/09/19 11:21:20;;;;;;;0.32;0.00;;;22.70;95.50;;;;;;5053085;28;20262;-76
2021/09/19 11:23:47;;;;;;;0.10;0.00;;;22.90;95.90;;;;;;5054008;28;20029;-77
2021/09/19 11:26:18;;;;;;;0.30;0.10;;;22.80;95.20;;;;;;5038908;28;20055;-77
2021/09/19 11:28:45;;;;;;;0.00;0.00;;;22.70;94.00;;;;;;5035686;28;20367;-76
2021/09/19 11:31:11;;;;;;;0.57;0.10;;;22.70;94.60;;;;;;5051351;28;20032;-77
2021/09/19 11:33:37;;;;;;;0.10;0.00;;;22.70;93.70;;;;;;5035297;28;20033;-76
2021/09/19 11:36:06;;;;;;;0.80;0.00;;;22.70;92.40;;;;;;5035647;28;20505;-75
2021/09/19 11:38:42;;;;;;;0.20;0.00;;;22.70;92.30;;;;;;5035268;28;20021;-75
2021/09/19 11:41:14;;;;;;;0.10;0.00;;;22.90;92.60;;;;;;5052739;28;20482;-73
2021/09/19 11:43:42;;;;;;;0.63;0.00;;;23.00;92.60;;;;;;5035790;28;20040;-77
2021/09/19 11:46:10;;;;;;;0.40;0.10;;;23.00;91.60;;;;;;5052858;28;20021;-76
2021/09/19 11:48:36;;;;;;;1.53;0.17;;;22.90;92.10;;;;;;5052880;28;20108;-75
2021/09/19 11:51:03;;;;;;;0.55;0.00;;;22.80;92.70;;;;;;5041200;28;20371;-78
2021/09/19 11:53:29;;;;;;;0.30;0.10;;;22.90;93.80;;;;;;5033312;28;20036;-75
2021/09/19 11:55:55;;;;;;;0.55;0.10;;;23.00;92.30;;;;;;5017163;28;20009;-81
2021/09/19 11:58:25;;;;;;;0.22;0.10;;;23.00;92.10;;;;;;5027142;28;20152;-80
2021/09/19 12:00:58;;;;;;;0.32;0.00;;;22.70;91.60;;;;;;5045216;28;20044;-77
2021/09/19 12:03:25;;;;;;;0.20;0.10;;;22.70;92.00;;;;;;5037122;28;20383;-77
2021/09/19 12:05:53;;;;;;;0.43;0.00;;;22.70;92.60;;;;;;5038762;28;20021;-80
2021/09/19 12:08:20;;;;;;;0.20;0.00;;;23.00;92.20;;;;;;5019602;28;20064;-75
2021/09/19 12:10:56;;;;;;;1.38;0.05;;;22.50;91.80;;;;;;5029684;28;20509;-75
2021/09/19 12:13:26;;;;;;;0.60;0.10;;;22.50;91.30;;;;;;5038246;28;20021;-76
2021/09/19 12:16:19;;;;;;;0.10;0.00;;;22.70;93.30;;;;;;5056356;28;20398;-80
2021/09/19 12:18:50;;;;;;;1.17;0.10;;;22.90;92.20;;;;;;5027682;28;20079;-80
2021/09/19 12:21:25;;;;;;;0.20;0.00;;;23.00;92.20;;;;;;5035561;28;20544;-81
2021/09/19 12:23:56;;;;;;;0.40;0.00;;;23.30;92.50;;;;;;5039788;28;20123;-78
2021/09/19 12:26:23;;;;;;;0.88;0.00;;;23.40;91.30;;;;;;5041291;28;20033;-78
2021/09/19 12:28:51;;;;;;;0.20;0.00;;;23.60;92.10;;;;;;5037297;28;20060;-74
2021/09/19 12:31:37;;;;;;;1.65;0.00;;;23.80;90.60;;;;;;5036126;28;20036;-74
2021/09/19 12:34:05;;;;;;;0.82;0.00;;;24.20;90.00;;;;;;5018101;28;20053;-74
2021/09/19 12:36:42;;;;;;;0.10;0.00;;;24.40;87.40;;;;;;5018263;28;20030;-75
2021/09/19 12:39:20;;;;;;;0.20;0.20;;;24.40;85.30;;;;;;5019332;28;20075;-75
2021/09/19 12:41:48;;;;;;;0.10;0.10;;;24.10;84.80;;;;;;5054476;28;20023;-73
2021/09/19 12:44:26;;;;;;;0.10;0.00;;;24.00;85.70;;;;;;5038044;28;20135;-75
2021/09/19 12:46:54;;;;;;;0.73;0.00;;;23.70;86.40;;;;;;5055847;28;20029;-75
2021/09/19 12:49:30;;;;;;;0.40;0.00;;;23.60;87.70;;;;;;5055757;28;20025;-74
2021/09/19 12:52:06;;;;;;;0.10;0.00;;;23.60;86.10;;;;;;5055781;28;20036;-76
2021/09/19 12:54:51;;;;;;;0.08;0.00;;;23.60;85.00;;;;;;5055568;28;20107;-75
2021/09/19 12:57:19;;;;;;;0.40;0.00;;;23.70;85.20;;;;;;5055699;28;20481;-74